sensor_id;sensor_type;location;lat;lon;timestamp;pressure;altitude;pressure_sealevel;temperature;humidity
48200;BME280;33990;44.602;10.976;2024-03-02T00:01:47;100091.28;;;21.16;53.06
48200;BME280;33990;44.602;10.976;2024-03-02T00:04:15;100092.78;;;21.18;53.13
48200;BME280;33990;44.602;10.976;2024-03-02T00:06:42;100092.63;;;21.20;53.08
48200;BME280;33990;44.602;10.976;2024-03-02T00:09:10;100085.22;;;21.22;53.03
48200;BME280;33990;44.602;10.976;2024-03-02T00:11:40;100093.16;;;21.23;52.99
48200;BME280;33990;44.602;10.976;2024-03-02T00:14:07;100088.63;;;21.24;53.01
48200;BME280;33990;44.602;10.976;2024-03-02T00:16:35;100093.81;;;21.26;52.91
48200;BME280;33990;44.602;10.976;2024-03-02T00:19:05;100104.44;;;21.27;52.98
48200;BME280;33990;44.602;10.976;2024-03-02T00:21:34;100098.06;;;21.28;52.78
48200;BME280;33990;44.602;10.976;2024-03-02T00:26:54;100101.59;;;21.29;52.71
48200;BME280;33990;44.602;10.976;2024-03-02T00:29:22;100105.94;;;21.30;52.47
48200;BME280;33990;44.602;10.976;2024-03-02T00:31:49;100100.56;;;21.30;52.64
48200;BME280;33990;44.602;10.976;2024-03-02T00:34:17;100105.94;;;21.30;52.67
48200;BME280;33990;44.602;10.976;2024-03-02T00:36:45;100101.59;;;21.29;52.72
48200;BME280;33990;44.602;10.976;2024-03-02T00:39:12;100106.44;;;21.25;52.81
48200;BME280;33990;44.602;10.976;2024-03-02T00:41:42;100099.69;;;21.21;53.09
48200;BME280;33990;44.602;10.976;2024-03-02T00:44:12;100112.50;;;21.19;52.82
48200;BME280;33990;44.602;10.976;2024-03-02T00:46:41;100111.13;;;21.15;52.93
48200;BME280;33990;44.602;10.976;2024-03-02T00:51:39;100114.28;;;21.10;53.15
48200;BME280;33990;44.602;10.976;2024-03-02T00:54:08;100116.28;;;21.08;53.03
48200;BME280;33990;44.602;10.976;2024-03-02T00:56:36;100118.28;;;21.06;53.12
48200;BME280;33990;44.602;10.976;2024-03-02T00:59:04;100123.84;;;21.05;53.01
48200;BME280;33990;44.602;10.976;2024-03-02T01:01:31;100115.78;;;21.05;53.02
48200;BME280;33990;44.602;10.976;2024-03-02T01:03:58;100114.94;;;21.04;53.05
48200;BME280;33990;44.602;10.976;2024-03-02T01:06:26;100120.47;;;21.03;53.03
48200;BME280;33990;44.602;10.976;2024-03-02T01:08:53;100120.63;;;21.01;53.10
48200;BME280;33990;44.602;10.976;2024-03-02T01:11:20;100116.09;;;21.02;53.08
48200;BME280;33990;44.602;10.976;2024-03-02T01:13:51;100111.88;;;20.99;53.17
48200;BME280;33990;44.602;10.976;2024-03-02T01:16:20;100113.56;;;21.00;53.06
48200;BME280;33990;44.602;10.976;2024-03-02T01:18:47;100122.66;;;20.99;53.09
48200;BME280;33990;44.602;10.976;2024-03-02T01:21:15;100116.25;;;21.00;52.97
48200;BME280;33990;44.602;10.976;2024-03-02T01:23:43;100119.97;;;20.99;53.09
48200;BME280;33990;44.602;10.976;2024-03-02T01:26:11;100112.03;;;20.97;53.00
48200;BME280;33990;44.602;10.976;2024-03-02T01:28:38;100118.25;;;20.98;53.02
48200;BME280;33990;44.602;10.976;2024-03-02T01:31:05;100120.09;;;20.97;53.05
48200;BME280;33990;44.602;10.976;2024-03-02T01:33:33;100121.94;;;20.97;53.01
48200;BME280;33990;44.602;10.976;2024-03-02T01:36:00;100118.25;;;20.98;53.05
48200;BME280;33990;44.602;10.976;2024-03-02T01:38:28;100114.88;;;20.96;53.06
48200;BME280;33990;44.602;10.976;2024-03-02T01:40:55;100117.56;;;20.96;53.19
48200;BME280;33990;44.602;10.976;2024-03-02T01:43:24;100119.25;;;20.97;53.00
48200;BME280;33990;44.602;10.976;2024-03-02T01:45:51;100123.81;;;20.96;53.03
48200;BME280;33990;44.602;10.976;2024-03-02T01:48:20;100123.81;;;20.96;53.07
48200;BME280;33990;44.602;10.976;2024-03-02T01:50:47;100117.56;;;20.96;52.97
48200;BME280;33990;44.602;10.976;2024-03-02T01:53:15;100124.81;;;20.95;53.05
48200;BME280;33990;44.602;10.976;2024-03-02T01:55:42;100131.03;;;20.96;53.05
48200;BME280;33990;44.602;10.976;2024-03-02T01:58:10;100121.28;;;20.95;53.07
48200;BME280;33990;44.602;10.976;2024-03-02T02:00:37;100125.81;;;20.94;53.03
48200;BME280;33990;44.602;10.976;2024-03-02T02:03:05;100130.19;;;20.95;52.98
48200;BME280;33990;44.602;10.976;2024-03-02T02:05:34;100127.63;;;20.94;53.06
48200;BME280;33990;44.602;10.976;2024-03-02T02:08:02;100130.34;;;20.94;53.09
48200;BME280;33990;44.602;10.976;2024-03-02T02:10:30;100133.03;;;20.94;52.97
48200;BME280;33990;44.602;10.976;2024-03-02T02:12:57;100124.94;;;20.94;53.02
48200;BME280;33990;44.602;10.976;2024-03-02T02:15:26;100126.81;;;20.93;52.95
48200;BME280;33990;44.602;10.976;2024-03-02T02:17:57;100117.88;;;20.93;52.93
48200;BME280;33990;44.602;10.976;2024-03-02T02:20:25;100116.03;;;20.93;53.07
48200;BME280;33990;44.602;10.976;2024-03-02T02:23:10;100117.03;;;20.92;53.08
48200;BME280;33990;44.602;10.976;2024-03-02T02:25:39;100117.88;;;20.93;53.07
48200;BME280;33990;44.602;10.976;2024-03-02T02:28:07;100117.88;;;20.93;53.06
48200;BME280;33990;44.602;10.976;2024-03-02T02:30:34;100117.88;;;20.93;53.04
48200;BME280;33990;44.602;10.976;2024-03-02T02:33:02;100110.81;;;20.92;53.13
48200;BME280;33990;44.602;10.976;2024-03-02T02:35:30;100108.97;;;20.92;53.08
48200;BME280;33990;44.602;10.976;2024-03-02T02:37:57;100101.75;;;20.93;53.10
48200;BME280;33990;44.602;10.976;2024-03-02T02:40:26;100107.13;;;20.93;53.10
48200;BME280;33990;44.602;10.976;2024-03-02T02:42:54;100110.81;;;20.92;53.16
48200;BME280;33990;44.602;10.976;2024-03-02T02:45:21;100100.06;;;20.92;53.32
48200;BME280;33990;44.602;10.976;2024-03-02T02:47:49;100105.44;;;20.92;53.17
48200;BME280;33990;44.602;10.976;2024-03-02T02:50:16;100108.13;;;20.92;53.11
48200;BME280;33990;44.602;10.976;2024-03-02T02:52:44;100101.06;;;20.91;53.19
48200;BME280;33990;44.602;10.976;2024-03-02T02:55:12;100105.44;;;20.92;53.15
48200;BME280;33990;44.602;10.976;2024-03-02T02:57:41;100109.81;;;20.93;53.17
48200;BME280;33990;44.602;10.976;2024-03-02T03:00:14;100109.81;;;20.93;53.22
48200;BME280;33990;44.602;10.976;2024-03-02T03:02:47;100105.28;;;20.93;53.17
48200;BME280;33990;44.602;10.976;2024-03-02T03:05:17;100108.81;;;20.94;53.25
48200;BME280;33990;44.602;10.976;2024-03-02T03:07:45;100104.28;;;20.94;53.36
48200;BME280;33990;44.602;10.976;2024-03-02T03:10:12;100110.66;;;20.93;53.34
48200;BME280;33990;44.602;10.976;2024-03-02T03:12:42;100105.28;;;20.93;53.23
48200;BME280;33990;44.602;10.976;2024-03-02T03:15:12;100103.59;;;20.92;53.25
48200;BME280;33990;44.602;10.976;2024-03-02T03:17:40;100110.66;;;20.93;53.30
48200;BME280;33990;44.602;10.976;2024-03-02T03:20:08;100113.34;;;20.93;53.36
48200;BME280;33990;44.602;10.976;2024-03-02T03:22:38;100110.66;;;20.93;53.39
48200;BME280;33990;44.602;10.976;2024-03-02T03:25:06;100114.19;;;20.94;53.39
48200;BME280;33990;44.602;10.976;2024-03-02T03:27:37;100112.50;;;20.93;53.50
48200;BME280;33990;44.602;10.976;2024-03-02T03:30:05;100116.88;;;20.94;53.45
48200;BME280;33990;44.602;10.976;2024-03-02T03:32:34;100113.34;;;20.93;53.42
48200;BME280;33990;44.602;10.976;2024-03-02T03:35:01;100116.22;;;20.92;53.22
48200;BME280;33990;44.602;10.976;2024-03-02T03:37:29;100118.91;;;20.92;53.41
48200;BME280;33990;44.602;10.976;2024-03-02T03:40:05;100116.22;;;20.92;53.44
48200;BME280;33990;44.602;10.976;2024-03-02T03:42:42;100117.22;;;20.91;53.37
48200;BME280;33990;44.602;10.976;2024-03-02T03:45:09;100119.91;;;20.91;53.36
48200;BME280;33990;44.602;10.976;2024-03-02T03:47:37;100120.75;;;20.91;53.40
48200;BME280;33990;44.602;10.976;2024-03-02T03:50:05;100121.75;;;20.90;53.51
48200;BME280;33990;44.602;10.976;2024-03-02T03:52:34;100118.19;;;20.90;53.49
48200;BME280;33990;44.602;10.976;2024-03-02T03:55:02;100123.59;;;20.90;53.40
48200;BME280;33990;44.602;10.976;2024-03-02T03:57:29;100121.91;;;20.89;53.41
48200;BME280;33990;44.602;10.976;2024-03-02T03:59:56;100123.59;;;20.90;53.50
48200;BME280;33990;44.602;10.976;2024-03-02T04:02:24;100116.53;;;20.89;53.50
48200;BME280;33990;44.602;10.976;2024-03-02T04:04:52;100131.81;;;20.88;53.50
48200;BME280;33990;44.602;10.976;2024-03-02T04:07:19;100128.13;;;20.89;53.56
48200;BME280;33990;44.602;10.976;2024-03-02T04:09:46;100127.28;;;20.89;53.45
48200;BME280;33990;44.602;10.976;2024-03-02T04:12:14;100128.13;;;20.89;53.52
48200;BME280;33990;44.602;10.976;2024-03-02T04:14:41;100137.03;;;20.90;53.40
48200;BME280;33990;44.602;10.976;2024-03-02T04:17:09;100139.91;;;20.88;53.51
48200;BME280;33990;44.602;10.976;2024-03-02T04:19:37;100134.34;;;20.90;53.52
48200;BME280;33990;44.602;10.976;2024-03-02T04:22:04;100142.41;;;20.90;53.51
48200;BME280;33990;44.602;10.976;2024-03-02T04:24:44;100144.25;;;20.89;53.57
48200;BME280;33990;44.602;10.976;2024-03-02T04:27:12;100141.56;;;20.89;53.47
48200;BME280;33990;44.602;10.976;2024-03-02T04:29:39;100145.09;;;20.90;53.54
48200;BME280;33990;44.602;10.976;2024-03-02T04:32:06;100149.66;;;20.89;53.60
48200;BME280;33990;44.602;10.976;2024-03-02T04:34:34;100145.97;;;20.90;53.53
48200;BME280;33990;44.602;10.976;2024-03-02T04:37:01;100143.44;;;20.89;53.66
48200;BME280;33990;44.602;10.976;2024-03-02T04:39:29;100147.78;;;20.90;53.53
48200;BME280;33990;44.602;10.976;2024-03-02T04:41:56;100153.19;;;20.90;53.56
48200;BME280;33990;44.602;10.976;2024-03-02T04:44:24;100147.97;;;20.88;53.61
48200;BME280;33990;44.602;10.976;2024-03-02T04:46:51;100156.88;;;20.89;53.54
48200;BME280;33990;44.602;10.976;2024-03-02T04:49:19;100148.81;;;20.89;53.52
48200;BME280;33990;44.602;10.976;2024-03-02T04:51:46;100159.56;;;20.89;53.50
48200;BME280;33990;44.602;10.976;2024-03-02T04:54:14;100156.88;;;20.89;53.54
48200;BME280;33990;44.602;10.976;2024-03-02T04:56:41;100159.56;;;20.89;53.51
48200;BME280;33990;44.602;10.976;2024-03-02T04:59:17;100167.63;;;20.89;53.50
48200;BME280;33990;44.602;10.976;2024-03-02T05:01:47;100164.09;;;20.88;53.48
48200;BME280;33990;44.602;10.976;2024-03-02T05:04:15;100162.25;;;20.89;53.45
48200;BME280;33990;44.602;10.976;2024-03-02T05:06:42;100178.41;;;20.89;53.52
48200;BME280;33990;44.602;10.976;2024-03-02T05:09:10;100174.03;;;20.88;53.55
48200;BME280;33990;44.602;10.976;2024-03-02T05:11:37;100174.88;;;20.88;53.48
48200;BME280;33990;44.602;10.976;2024-03-02T05:14:05;100181.25;;;20.87;53.54
48200;BME280;33990;44.602;10.976;2024-03-02T05:16:36;100180.41;;;20.87;53.47
48200;BME280;33990;44.602;10.976;2024-03-02T05:19:07;100177.72;;;20.87;53.55
48200;BME280;33990;44.602;10.976;2024-03-02T05:21:35;100184.78;;;20.88;53.59
48200;BME280;33990;44.602;10.976;2024-03-02T05:24:02;100193.00;;;20.86;53.50
48200;BME280;33990;44.602;10.976;2024-03-02T05:26:30;100199.09;;;20.88;53.72
48200;BME280;33990;44.602;10.976;2024-03-02T05:28:57;100193.88;;;20.87;53.81
48200;BME280;33990;44.602;10.976;2024-03-02T05:31:25;100191.00;;;20.88;53.96
48200;BME280;33990;44.602;10.976;2024-03-02T05:33:52;100193.69;;;20.88;54.01
48200;BME280;33990;44.602;10.976;2024-03-02T05:36:24;100201.78;;;20.88;53.89
48200;BME280;33990;44.602;10.976;2024-03-02T05:38:51;100195.56;;;20.88;54.08
48200;BME280;33990;44.602;10.976;2024-03-02T05:41:19;100200.94;;;20.88;53.96
48200;BME280;33990;44.602;10.976;2024-03-02T05:43:46;100194.72;;;20.87;53.89
48200;BME280;33990;44.602;10.976;2024-03-02T05:46:14;100199.25;;;20.87;53.98
48200;BME280;33990;44.602;10.976;2024-03-02T05:48:41;100193.88;;;20.87;53.96
48200;BME280;33990;44.602;10.976;2024-03-02T05:51:08;100194.72;;;20.87;53.83
48200;BME280;33990;44.602;10.976;2024-03-02T05:53:36;100197.41;;;20.87;53.91
48200;BME280;33990;44.602;10.976;2024-03-02T05:56:06;100204.63;;;20.87;53.89
48200;BME280;33990;44.602;10.976;2024-03-02T05:58:33;100206.31;;;20.88;53.98
48200;BME280;33990;44.602;10.976;2024-03-02T06:01:19;100214.22;;;20.89;53.94
48200;BME280;33990;44.602;10.976;2024-03-02T06:03:47;100217.06;;;20.88;53.97
48200;BME280;33990;44.602;10.976;2024-03-02T06:06:14;100216.91;;;20.89;54.23
48200;BME280;33990;44.602;10.976;2024-03-02T06:08:42;100221.44;;;20.89;54.02
48200;BME280;33990;44.602;10.976;2024-03-02T06:11:09;100227.66;;;20.89;54.10
48200;BME280;33990;44.602;10.976;2024-03-02T06:13:37;100224.97;;;20.89;54.06
48200;BME280;33990;44.602;10.976;2024-03-02T06:16:06;100224.13;;;20.89;54.00
48200;BME280;33990;44.602;10.976;2024-03-02T06:18:34;100227.84;;;20.88;53.97
48200;BME280;33990;44.602;10.976;2024-03-02T06:21:01;100221.44;;;20.89;53.99
48200;BME280;33990;44.602;10.976;2024-03-02T06:23:29;100234.91;;;20.89;53.94
48200;BME280;33990;44.602;10.976;2024-03-02T06:25:56;100230.53;;;20.88;53.95
48200;BME280;33990;44.602;10.976;2024-03-02T06:28:26;100230.53;;;20.88;53.95
48200;BME280;33990;44.602;10.976;2024-03-02T06:30:54;100238.59;;;20.88;53.92
48200;BME280;33990;44.602;10.976;2024-03-02T06:33:21;100243.13;;;20.87;53.86
48200;BME280;33990;44.602;10.976;2024-03-02T06:35:49;100243.97;;;20.88;53.82
48200;BME280;33990;44.602;10.976;2024-03-02T06:38:16;100251.22;;;20.87;54.06
48200;BME280;33990;44.602;10.976;2024-03-02T06:40:44;100249.38;;;20.88;53.83
48200;BME280;33990;44.602;10.976;2024-03-02T06:43:11;100247.69;;;20.87;53.80
48200;BME280;33990;44.602;10.976;2024-03-02T06:45:38;100255.75;;;20.87;53.83
48200;BME280;33990;44.602;10.976;2024-03-02T06:48:06;100253.06;;;20.87;53.77
48200;BME280;33990;44.602;10.976;2024-03-02T06:50:34;100255.75;;;20.87;54.01
48200;BME280;33990;44.602;10.976;2024-03-02T06:53:01;100257.56;;;20.86;54.01
48200;BME280;33990;44.602;10.976;2024-03-02T06:55:31;100263.81;;;20.87;54.01
48200;BME280;33990;44.602;10.976;2024-03-02T06:57:58;100267.34;;;20.87;54.14
48200;BME280;33990;44.602;10.976;2024-03-02T07:00:26;100266.50;;;20.87;54.15
48200;BME280;33990;44.602;10.976;2024-03-02T07:02:53;100275.44;;;20.87;54.01
48200;BME280;33990;44.602;10.976;2024-03-02T07:05:21;100273.72;;;20.86;53.98
48200;BME280;33990;44.602;10.976;2024-03-02T07:07:48;100273.72;;;20.86;54.02
48200;BME280;33990;44.602;10.976;2024-03-02T07:10:15;100281.78;;;20.86;54.01
48200;BME280;33990;44.602;10.976;2024-03-02T07:12:43;100278.13;;;20.87;54.01
48200;BME280;33990;44.602;10.976;2024-03-02T07:15:12;100280.94;;;20.86;53.86
48200;BME280;33990;44.602;10.976;2024-03-02T07:17:56;100282.66;;;20.87;53.97
48200;BME280;33990;44.602;10.976;2024-03-02T07:20:23;100289.84;;;20.86;53.94
48200;BME280;33990;44.602;10.976;2024-03-02T07:22:51;100283.63;;;20.86;54.01
48200;BME280;33990;44.602;10.976;2024-03-02T07:25:18;100291.72;;;20.86;53.86
48200;BME280;33990;44.602;10.976;2024-03-02T07:27:48;100304.19;;;20.87;54.06
48200;BME280;33990;44.602;10.976;2024-03-02T07:30:16;100294.41;;;20.86;53.97
48200;BME280;33990;44.602;10.976;2024-03-02T07:32:43;100300.63;;;20.86;53.80
48200;BME280;33990;44.602;10.976;2024-03-02T07:35:13;100303.31;;;20.86;53.88
48200;BME280;33990;44.602;10.976;2024-03-02T07:37:41;100304.19;;;20.87;53.97
48200;BME280;33990;44.602;10.976;2024-03-02T07:40:10;100311.38;;;20.86;53.85
48200;BME280;33990;44.602;10.976;2024-03-02T07:42:41;100307.84;;;20.86;54.06
48200;BME280;33990;44.602;10.976;2024-03-02T07:45:09;100313.09;;;20.87;53.92
48200;BME280;33990;44.602;10.976;2024-03-02T07:47:36;100311.25;;;20.88;53.94
48200;BME280;33990;44.602;10.976;2024-03-02T07:50:04;100304.19;;;20.87;53.87
48200;BME280;33990;44.602;10.976;2024-03-02T07:52:35;100312.25;;;20.87;53.88
48200;BME280;33990;44.602;10.976;2024-03-02T07:55:02;100317.63;;;20.87;53.94
48200;BME280;33990;44.602;10.976;2024-03-02T07:57:30;100310.41;;;20.87;53.94
48200;BME280;33990;44.602;10.976;2024-03-02T07:59:57;100320.47;;;20.85;53.91
48200;BME280;33990;44.602;10.976;2024-03-02T08:02:26;100328.41;;;20.87;53.88
48200;BME280;33990;44.602;10.976;2024-03-02T08:04:54;100332.06;;;20.86;53.92
48200;BME280;33990;44.602;10.976;2024-03-02T08:07:21;100332.91;;;20.86;53.74
48200;BME280;33990;44.602;10.976;2024-03-02T08:09:48;100326.69;;;20.86;53.85
48200;BME280;33990;44.602;10.976;2024-03-02T08:12:16;100336.47;;;20.87;53.70
48200;BME280;33990;44.602;10.976;2024-03-02T08:14:45;100332.06;;;20.86;53.71
48200;BME280;33990;44.602;10.976;2024-03-02T08:17:12;100338.28;;;20.86;53.79
48200;BME280;33990;44.602;10.976;2024-03-02T08:19:40;100332.91;;;20.86;54.09
48200;BME280;33990;44.602;10.976;2024-03-02T08:22:08;100337.44;;;20.86;53.88
48200;BME280;33990;44.602;10.976;2024-03-02T08:24:35;100346.34;;;20.86;53.80
48200;BME280;33990;44.602;10.976;2024-03-02T08:27:03;100346.34;;;20.86;53.85
48200;BME280;33990;44.602;10.976;2024-03-02T08:29:31;100349.03;;;20.86;53.73
48200;BME280;33990;44.602;10.976;2024-03-02T08:31:59;100351.75;;;20.86;53.91
48200;BME280;33990;44.602;10.976;2024-03-02T08:34:26;100352.63;;;20.87;53.87
48200;BME280;33990;44.602;10.976;2024-03-02T08:36:53;100359.81;;;20.86;53.80
48200;BME280;33990;44.602;10.976;2024-03-02T08:39:21;100359.81;;;20.86;53.89
48200;BME280;33990;44.602;10.976;2024-03-02T08:41:48;100370.56;;;20.86;53.88
48200;BME280;33990;44.602;10.976;2024-03-02T08:44:16;100368.88;;;20.85;53.85
48200;BME280;33990;44.602;10.976;2024-03-02T08:46:44;100368.88;;;20.85;53.95
48200;BME280;33990;44.602;10.976;2024-03-02T08:49:12;100367.03;;;20.86;53.90
48200;BME280;33990;44.602;10.976;2024-03-02T08:51:39;100372.41;;;20.86;53.98
48200;BME280;33990;44.602;10.976;2024-03-02T08:54:07;100369.72;;;20.86;54.00
48200;BME280;33990;44.602;10.976;2024-03-02T08:56:35;100363.50;;;20.85;53.98
48200;BME280;33990;44.602;10.976;2024-03-02T08:59:03;100371.44;;;20.87;53.96
48200;BME280;33990;44.602;10.976;2024-03-02T09:01:30;100370.56;;;20.86;53.86
48200;BME280;33990;44.602;10.976;2024-03-02T09:03:58;100377.66;;;20.87;53.78
48200;BME280;33990;44.602;10.976;2024-03-02T09:06:25;100371.44;;;20.87;53.89
48200;BME280;33990;44.602;10.976;2024-03-02T09:08:53;100384.91;;;20.87;53.80
48200;BME280;33990;44.602;10.976;2024-03-02T09:11:20;100384.91;;;20.87;53.83
48200;BME280;33990;44.602;10.976;2024-03-02T09:13:47;100380.50;;;20.86;53.78
48200;BME280;33990;44.602;10.976;2024-03-02T09:16:15;100384.03;;;20.86;53.89
48200;BME280;33990;44.602;10.976;2024-03-02T09:18:42;100387.59;;;20.87;53.78
48200;BME280;33990;44.602;10.976;2024-03-02T09:21:10;100382.22;;;20.87;53.91
48200;BME280;33990;44.602;10.976;2024-03-02T09:23:37;100390.28;;;20.87;53.86
48200;BME280;33990;44.602;10.976;2024-03-02T09:26:05;100392.97;;;20.87;53.87
48200;BME280;33990;44.602;10.976;2024-03-02T09:28:32;100392.97;;;20.87;53.71
48200;BME280;33990;44.602;10.976;2024-03-02T09:31:00;100391.13;;;20.87;53.78
48200;BME280;33990;44.602;10.976;2024-03-02T09:33:28;100391.13;;;20.87;53.84
48200;BME280;33990;44.602;10.976;2024-03-02T09:35:55;100383.88;;;20.88;53.90
48200;BME280;33990;44.602;10.976;2024-03-02T09:38:23;100383.88;;;20.88;53.90
48200;BME280;33990;44.602;10.976;2024-03-02T09:40:50;100377.81;;;20.86;53.91
48200;BME280;33990;44.602;10.976;2024-03-02T09:43:17;100377.66;;;20.87;53.69
48200;BME280;33990;44.602;10.976;2024-03-02T09:45:45;100380.34;;;20.87;53.80
48200;BME280;33990;44.602;10.976;2024-03-02T09:48:12;100376.97;;;20.85;53.70
48200;BME280;33990;44.602;10.976;2024-03-02T09:50:40;100382.50;;;20.84;53.48
48200;BME280;33990;44.602;10.976;2024-03-02T09:53:08;100391.88;;;20.80;52.99
48200;BME280;33990;44.602;10.976;2024-03-02T09:55:35;100384.28;;;20.75;53.06
48200;BME280;33990;44.602;10.976;2024-03-02T09:58:03;100382.03;;;20.70;53.02
48200;BME280;33990;44.602;10.976;2024-03-02T10:00:31;100387.84;;;20.66;53.04
48200;BME280;33990;44.602;10.976;2024-03-02T10:02:58;100387.34;;;20.62;53.33
48200;BME280;33990;44.602;10.976;2024-03-02T10:05:27;100386.91;;;20.57;53.27
48200;BME280;33990;44.602;10.976;2024-03-02T10:08:02;100384.53;;;20.54;53.29
48200;BME280;33990;44.602;10.976;2024-03-02T10:10:40;100387.53;;;20.51;53.48
48200;BME280;33990;44.602;10.976;2024-03-02T10:13:10;100391.63;;;20.45;53.60
48200;BME280;33990;44.602;10.976;2024-03-02T10:15:39;100393.63;;;20.43;53.60
48200;BME280;33990;44.602;10.976;2024-03-02T10:18:10;100397.16;;;20.44;53.59
48200;BME280;33990;44.602;10.976;2024-03-02T10:20:40;100398.00;;;20.44;53.51
48200;BME280;33990;44.602;10.976;2024-03-02T10:23:12;100406.78;;;20.46;53.67
48200;BME280;33990;44.602;10.976;2024-03-02T10:25:40;100414.84;;;20.46;53.43
48200;BME280;33990;44.602;10.976;2024-03-02T10:28:21;100414.69;;;20.48;53.31
48200;BME280;33990;44.602;10.976;2024-03-02T10:30:48;100403.94;;;20.48;53.29
48200;BME280;33990;44.602;10.976;2024-03-02T10:33:20;100413.72;;;20.49;53.36
48200;BME280;33990;44.602;10.976;2024-03-02T10:35:49;100405.50;;;20.51;53.19
48200;BME280;33990;44.602;10.976;2024-03-02T10:38:17;100407.19;;;20.52;53.22
48200;BME280;33990;44.602;10.976;2024-03-02T10:40:47;100416.94;;;20.53;53.34
48200;BME280;33990;44.602;10.976;2024-03-02T10:43:17;100409.72;;;20.53;53.50
48200;BME280;33990;44.602;10.976;2024-03-02T10:45:47;100409.59;;;20.55;53.78
48200;BME280;33990;44.602;10.976;2024-03-02T10:48:16;100410.16;;;20.58;54.08
48200;BME280;33990;44.602;10.976;2024-03-02T10:50:44;100403.06;;;20.57;54.04
48200;BME280;33990;44.602;10.976;2024-03-02T10:53:12;100402.06;;;20.58;53.76
48200;BME280;33990;44.602;10.976;2024-03-02T10:55:39;100395.69;;;20.59;54.11
48200;BME280;33990;44.602;10.976;2024-03-02T10:58:11;100411.00;;;20.59;53.80
48200;BME280;33990;44.602;10.976;2024-03-02T11:00:41;100407.47;;;20.58;53.69
48200;BME280;33990;44.602;10.976;2024-03-02T11:03:11;100403.38;;;20.54;53.79
48200;BME280;33990;44.602;10.976;2024-03-02T11:05:43;100399.81;;;20.54;53.53
48200;BME280;33990;44.602;10.976;2024-03-02T11:08:18;100407.34;;;20.50;53.54
48200;BME280;33990;44.602;10.976;2024-03-02T11:10:51;100402.94;;;20.49;53.55
48200;BME280;33990;44.602;10.976;2024-03-02T11:13:27;100400.25;;;20.49;53.66
48200;BME280;33990;44.602;10.976;2024-03-02T11:16:04;100398.97;;;20.53;53.37
48200;BME280;33990;44.602;10.976;2024-03-02T11:18:33;100391.47;;;20.47;52.37
48200;BME280;33990;44.602;10.976;2024-03-02T11:21:02;100393.91;;;20.40;52.60
48200;BME280;33990;44.602;10.976;2024-03-02T11:23:33;100391.84;;;20.34;52.50
48200;BME280;33990;44.602;10.976;2024-03-02T11:26:21;100397.34;;;20.33;52.78
48200;BME280;33990;44.602;10.976;2024-03-02T11:28:51;100389.00;;;20.36;52.86
48200;BME280;33990;44.602;10.976;2024-03-02T11:31:18;100387.53;;;20.41;53.07
48200;BME280;33990;44.602;10.976;2024-03-02T11:33:45;100385.97;;;20.48;52.97
48200;BME280;33990;44.602;10.976;2024-03-02T11:36:13;100385.53;;;20.53;53.18
48200;BME280;33990;44.602;10.976;2024-03-02T11:38:43;100382.84;;;20.53;52.96
48200;BME280;33990;44.602;10.976;2024-03-02T11:41:11;100378.47;;;20.52;52.81
48200;BME280;33990;44.602;10.976;2024-03-02T11:43:40;100378.47;;;20.52;52.86
48200;BME280;33990;44.602;10.976;2024-03-02T11:46:10;100381.31;;;20.51;53.00
48200;BME280;33990;44.602;10.976;2024-03-02T11:48:39;100369.97;;;20.47;52.52
48200;BME280;33990;44.602;10.976;2024-03-02T11:51:07;100371.94;;;20.45;52.18
48200;BME280;33990;44.602;10.976;2024-03-02T11:53:35;100356.81;;;20.44;52.17
48200;BME280;33990;44.602;10.976;2024-03-02T11:56:03;100355.81;;;20.45;52.24
48200;BME280;33990;44.602;10.976;2024-03-02T11:58:33;100352.84;;;20.48;52.47
48200;BME280;33990;44.602;10.976;2024-03-02T12:01:03;100355.25;;;20.51;52.41
48200;BME280;33990;44.602;10.976;2024-03-02T12:03:32;100358.63;;;20.53;52.61
48200;BME280;33990;44.602;10.976;2024-03-02T12:06:00;100359.19;;;20.57;52.55
48200;BME280;33990;44.602;10.976;2024-03-02T12:08:27;100368.78;;;20.59;52.51
48200;BME280;33990;44.602;10.976;2024-03-02T12:11:01;100356.88;;;20.62;52.54
48200;BME280;33990;44.602;10.976;2024-03-02T12:13:31;100355.06;;;20.62;52.65
48200;BME280;33990;44.602;10.976;2024-03-02T12:15:59;100358.59;;;20.63;52.50
48200;BME280;33990;44.602;10.976;2024-03-02T12:18:26;100357.41;;;20.65;52.63
48200;BME280;33990;44.602;10.976;2024-03-02T12:20:54;100353.44;;;20.69;52.56
48200;BME280;33990;44.602;10.976;2024-03-02T12:23:26;100356.53;;;20.74;52.37
48200;BME280;33990;44.602;10.976;2024-03-02T12:25:53;100353.50;;;20.78;52.31
48200;BME280;33990;44.602;10.976;2024-03-02T12:28:21;100355.91;;;20.81;52.30
48200;BME280;33990;44.602;10.976;2024-03-02T12:30:49;100349.22;;;20.85;52.15
48200;BME280;33990;44.602;10.976;2024-03-02T12:33:17;100341.84;;;20.87;52.42
48200;BME280;33990;44.602;10.976;2024-03-02T12:35:44;100342.22;;;20.92;52.39
48200;BME280;33990;44.602;10.976;2024-03-02T12:38:12;100338.53;;;20.93;52.50
48200;BME280;33990;44.602;10.976;2024-03-02T12:40:40;100333.16;;;20.93;52.80
48200;BME280;33990;44.602;10.976;2024-03-02T12:43:07;100336.84;;;20.92;52.78
48200;BME280;33990;44.602;10.976;2024-03-02T12:45:35;100338.69;;;20.91;53.24
48200;BME280;33990;44.602;10.976;2024-03-02T12:48:04;100334.31;;;20.90;53.28
48200;BME280;33990;44.602;10.976;2024-03-02T12:50:33;100332.59;;;20.89;53.64
48200;BME280;33990;44.602;10.976;2024-03-02T12:53:01;100332.59;;;20.89;53.82